sensor_id;sensor_type;location;lat;lon;timestamp;pressure;altitude;pressure_sealevel;temperature;humidity
34979;BME280;21185;50.978;13.720;2023-04-29T00:03:59;97761.72;;;11.61;68.43
34979;BME280;21185;50.978;13.720;2023-04-29T00:09:01;97754.91;;;11.60;68.76
34979;BME280;21185;50.978;13.720;2023-04-29T00:14:05;97762.50;;;11.62;68.80
34979;BME280;21185;50.978;13.720;2023-04-29T00:19:07;97749.34;;;11.63;68.89
34979;BME280;21185;50.978;13.720;2023-04-29T00:24:09;97741.19;;;11.66;69.08
34979;BME280;21185;50.978;13.720;2023-04-29T00:29:11;97745.22;;;11.69;69.13
34979;BME280;21185;50.978;13.720;2023-04-29T00:34:13;97738.84;;;11.72;69.27
34979;BME280;21185;50.978;13.720;2023-04-29T00:39:15;97741.25;;;11.73;69.53
34979;BME280;21185;50.978;13.720;2023-04-29T00:44:17;97725.47;;;11.75;69.52
34979;BME280;21185;50.978;13.720;2023-04-29T00:49:19;97733.28;;;11.75;69.72
34979;BME280;21185;50.978;13.720;2023-04-29T00:54:21;97728.88;;;11.75;69.83
34979;BME280;21185;50.978;13.720;2023-04-29T00:59:25;97734.44;;;11.72;69.88
34979;BME280;21185;50.978;13.720;2023-04-29T01:04:34;97732.66;;;11.73;70.04
34979;BME280;21185;50.978;13.720;2023-04-29T01:09:45;97716.38;;;11.79;70.33
34979;BME280;21185;50.978;13.720;2023-04-29T01:15:21;97722.25;;;11.87;70.84
34979;BME280;21185;50.978;13.720;2023-04-29T01:20:25;97709.31;;;11.94;70.49
34979;BME280;21185;50.978;13.720;2023-04-29T01:25:28;97721.59;;;12.00;70.76
34979;BME280;21185;50.978;13.720;2023-04-29T01:36:09;97735.47;;;12.07;71.10
34979;BME280;21185;50.978;13.720;2023-04-29T01:41:22;97741.28;;;12.09;71.61
34979;BME280;21185;50.978;13.720;2023-04-29T01:46:34;97746.66;;;12.08;72.25
34979;BME280;21185;50.978;13.720;2023-04-29T01:51:37;97742.09;;;12.10;72.22
34979;BME280;21185;50.978;13.720;2023-04-29T01:56:40;97748.09;;;12.10;72.36
34979;BME280;21185;50.978;13.720;2023-04-29T02:02:02;97753.31;;;12.10;72.45
34979;BME280;21185;50.978;13.720;2023-04-29T02:07:05;97767.28;;;12.09;72.76
34979;BME280;21185;50.978;13.720;2023-04-29T02:12:08;97770.88;;;12.08;72.95
34979;BME280;21185;50.978;13.720;2023-04-29T02:17:10;97782.28;;;12.07;73.15
34979;BME280;21185;50.978;13.720;2023-04-29T02:22:15;97785.06;;;12.06;73.39
34979;BME280;21185;50.978;13.720;2023-04-29T02:27:17;97780.03;;;12.04;73.73
34979;BME280;21185;50.978;13.720;2023-04-29T02:32:19;97782.00;;;12.02;74.52
34979;BME280;21185;50.978;13.720;2023-04-29T02:37:22;97750.00;;;12.02;74.55
34979;BME280;21185;50.978;13.720;2023-04-29T02:42:24;97760.41;;;12.02;74.31
34979;BME280;21185;50.978;13.720;2023-04-29T02:47:26;97764.81;;;12.01;74.25
34979;BME280;21185;50.978;13.720;2023-04-29T02:52:28;97758.63;;;12.02;74.14
34979;BME280;21185;50.978;13.720;2023-04-29T02:57:30;97749.81;;;12.03;74.07
34979;BME280;21185;50.978;13.720;2023-04-29T03:02:33;97749.63;;;12.05;74.09
34979;BME280;21185;50.978;13.720;2023-04-29T03:07:36;97746.06;;;12.06;74.06
34979;BME280;21185;50.978;13.720;2023-04-29T03:12:38;97740.03;;;12.05;74.06
34979;BME280;21185;50.978;13.720;2023-04-29T03:17:40;97739.06;;;12.06;74.09
34979;BME280;21185;50.978;13.720;2023-04-29T03:22:42;97738.06;;;12.07;73.96
34979;BME280;21185;50.978;13.720;2023-04-29T03:27:44;97744.06;;;12.08;73.96
34979;BME280;21185;50.978;13.720;2023-04-29T03:32:46;97743.88;;;12.09;74.07
34979;BME280;21185;50.978;13.720;2023-04-29T03:37:49;97733.47;;;12.09;74.08
34979;BME280;21185;50.978;13.720;2023-04-29T03:42:56;97733.47;;;12.09;74.15
34979;BME280;21185;50.978;13.720;2023-04-29T03:47:59;97726.50;;;12.10;74.23
34979;BME280;21185;50.978;13.720;2023-04-29T03:53:01;97723.69;;;12.11;74.06
34979;BME280;21185;50.978;13.720;2023-04-29T03:58:04;97718.50;;;12.11;74.25
34979;BME280;21185;50.978;13.720;2023-04-29T04:03:07;97720.28;;;12.11;74.37
34979;BME280;21185;50.978;13.720;2023-04-29T04:08:12;97731.69;;;12.10;74.47
34979;BME280;21185;50.978;13.720;2023-04-29T04:13:29;97734.28;;;12.10;74.45
34979;BME280;21185;50.978;13.720;2023-04-29T04:18:32;97724.69;;;12.10;74.54
34979;BME280;21185;50.978;13.720;2023-04-29T04:23:35;97731.50;;;12.11;74.69
34979;BME280;21185;50.978;13.720;2023-04-29T04:28:37;97730.16;;;12.15;74.86
34979;BME280;21185;50.978;13.720;2023-04-29T04:33:45;97735.78;;;12.19;74.94
34979;BME280;21185;50.978;13.720;2023-04-29T04:38:48;97734.78;;;12.20;75.14
34979;BME280;21185;50.978;13.720;2023-04-29T04:43:50;97731.19;;;12.21;75.50
34979;BME280;21185;50.978;13.720;2023-04-29T04:49:05;97733.63;;;12.22;75.68
34979;BME280;21185;50.978;13.720;2023-04-29T04:54:16;97735.84;;;12.25;75.78
34979;BME280;21185;50.978;13.720;2023-04-29T04:59:19;97743.28;;;12.28;75.59
34979;BME280;21185;50.978;13.720;2023-04-29T05:04:22;97752.31;;;12.32;75.51
34979;BME280;21185;50.978;13.720;2023-04-29T05:09:24;97751.59;;;12.39;75.56
34979;BME280;21185;50.978;13.720;2023-04-29T05:14:28;97761.63;;;12.42;75.48
34979;BME280;21185;50.978;13.720;2023-04-29T05:19:30;97751.81;;;12.44;75.70
34979;BME280;21185;50.978;13.720;2023-04-29T05:24:34;97749.84;;;12.46;75.79
34979;BME280;21185;50.978;13.720;2023-04-29T05:29:36;97769.66;;;12.47;76.09
34979;BME280;21185;50.978;13.720;2023-04-29T05:34:38;97762.47;;;12.49;76.15
34979;BME280;21185;50.978;13.720;2023-04-29T05:39:41;97768.56;;;12.56;76.25
34979;BME280;21185;50.978;13.720;2023-04-29T05:44:48;97778.53;;;12.74;76.20
34979;BME280;21185;50.978;13.720;2023-04-29T05:49:50;97773.59;;;12.85;76.17
34979;BME280;21185;50.978;13.720;2023-04-29T05:54:53;97781.84;;;12.89;76.32
34979;BME280;21185;50.978;13.720;2023-04-29T05:59:55;97782.28;;;12.92;76.76
34979;BME280;21185;50.978;13.720;2023-04-29T06:04:58;97775.69;;;12.96;76.76
34979;BME280;21185;50.978;13.720;2023-04-29T06:10:19;97789.53;;;12.97;77.36
34979;BME280;21185;50.978;13.720;2023-04-29T06:15:23;97790.94;;;13.00;77.69
34979;BME280;21185;50.978;13.720;2023-04-29T06:20:26;97792.56;;;13.01;78.23
34979;BME280;21185;50.978;13.720;2023-04-29T06:25:28;97792.16;;;13.04;78.36
34979;BME280;21185;50.978;13.720;2023-04-29T06:30:30;97790.41;;;13.11;78.26
34979;BME280;21185;50.978;13.720;2023-04-29T06:35:32;97801.47;;;13.13;78.50
34979;BME280;21185;50.978;13.720;2023-04-29T06:40:34;97794.91;;;13.17;78.52
34979;BME280;21185;50.978;13.720;2023-04-29T06:45:48;97805.75;;;13.20;78.64
34979;BME280;21185;50.978;13.720;2023-04-29T06:50:56;97808.78;;;13.24;78.68
34979;BME280;21185;50.978;13.720;2023-04-29T06:55:58;97819.97;;;13.18;78.88
34979;BME280;21185;50.978;13.720;2023-04-29T07:01:01;97822.91;;;13.15;78.94
34979;BME280;21185;50.978;13.720;2023-04-29T07:06:05;97823.47;;;13.10;79.02
34979;BME280;21185;50.978;13.720;2023-04-29T07:11:07;97823.06;;;13.07;78.99
34979;BME280;21185;50.978;13.720;2023-04-29T07:16:16;97825.03;;;13.05;79.16
34979;BME280;21185;50.978;13.720;2023-04-29T07:21:23;97829.63;;;13.03;79.07
34979;BME280;21185;50.978;13.720;2023-04-29T07:26:26;97835.84;;;13.02;79.43
34979;BME280;21185;50.978;13.720;2023-04-29T07:31:28;97834.22;;;13.01;79.43
34979;BME280;21185;50.978;13.720;2023-04-29T07:36:31;97845.06;;;13.04;79.47
34979;BME280;21185;50.978;13.720;2023-04-29T07:41:34;97850.28;;;13.04;79.80
34979;BME280;21185;50.978;13.720;2023-04-29T07:46:36;97851.09;;;13.05;80.39
34979;BME280;21185;50.978;13.720;2023-04-29T07:51:40;97856.16;;;13.13;80.21
34979;BME280;21185;50.978;13.720;2023-04-29T07:56:45;97855.78;;;13.16;80.43
34979;BME280;21185;50.978;13.720;2023-04-29T08:01:47;97864.72;;;13.28;80.25
34979;BME280;21185;50.978;13.720;2023-04-29T08:06:49;97866.16;;;13.31;80.24
34979;BME280;21185;50.978;13.720;2023-04-29T08:11:51;97865.78;;;13.34;79.94
34979;BME280;21185;50.978;13.720;2023-04-29T08:16:53;97878.22;;;13.38;79.92
34979;BME280;21185;50.978;13.720;2023-04-29T08:21:56;97883.81;;;13.35;79.81
34979;BME280;21185;50.978;13.720;2023-04-29T08:26:58;97885.19;;;13.31;80.21
34979;BME280;21185;50.978;13.720;2023-04-29T08:32:00;97897.84;;;13.34;80.20
34979;BME280;21185;50.978;13.720;2023-04-29T08:37:03;97904.72;;;13.42;80.16
34979;BME280;21185;50.978;13.720;2023-04-29T08:42:09;97900.31;;;13.42;80.27
34979;BME280;21185;50.978;13.720;2023-04-29T08:47:11;97908.75;;;13.44;80.22
34979;BME280;21185;50.978;13.720;2023-04-29T08:52:15;97911.66;;;13.56;80.24
34979;BME280;21185;50.978;13.720;2023-04-29T08:57:17;97918.13;;;13.67;80.23
34979;BME280;21185;50.978;13.720;2023-04-29T09:02:19;97914.19;;;13.77;79.98
34979;BME280;21185;50.978;13.720;2023-04-29T09:07:23;97917.25;;;14.22;79.68
34979;BME280;21185;50.978;13.720;2023-04-29T09:12:26;97906.56;;;14.51;79.23
34979;BME280;21185;50.978;13.720;2023-04-29T09:17:45;97919.50;;;14.32;79.06
34979;BME280;21185;50.978;13.720;2023-04-29T09:22:48;97937.25;;;14.08;79.32
34979;BME280;21185;50.978;13.720;2023-04-29T09:27:51;97947.16;;;13.85;79.49
34979;BME280;21185;50.978;13.720;2023-04-29T09:33:08;97959.00;;;13.59;79.47
34979;BME280;21185;50.978;13.720;2023-04-29T09:38:12;97968.06;;;13.42;79.58
34979;BME280;21185;50.978;13.720;2023-04-29T09:43:17;97966.59;;;13.33;79.50
34979;BME280;21185;50.978;13.720;2023-04-29T09:48:19;97975.78;;;13.29;79.50
34979;BME280;21185;50.978;13.720;2023-04-29T09:53:29;97974.28;;;13.20;79.52
34979;BME280;21185;50.978;13.720;2023-04-29T09:58:33;97978.97;;;13.10;79.53
34979;BME280;21185;50.978;13.720;2023-04-29T10:03:40;97982.50;;;13.02;79.46
34979;BME280;21185;50.978;13.720;2023-04-29T10:08:45;97990.84;;;12.97;79.40
34979;BME280;21185;50.978;13.720;2023-04-29T10:13:50;97983.66;;;13.00;79.62
34979;BME280;21185;50.978;13.720;2023-04-29T10:18:54;97998.13;;;13.02;79.63
34979;BME280;21185;50.978;13.720;2023-04-29T10:23:58;97994.97;;;13.07;79.67
34979;BME280;21185;50.978;13.720;2023-04-29T10:29:04;98006.25;;;13.14;79.73
34979;BME280;21185;50.978;13.720;2023-04-29T10:34:10;97997.72;;;13.20;79.80
34979;BME280;21185;50.978;13.720;2023-04-29T10:39:26;97999.34;;;13.42;79.82
34979;BME280;21185;50.978;13.720;2023-04-29T10:50:14;98005.63;;;13.48;79.78
34979;BME280;21185;50.978;13.720;2023-04-29T10:55:16;98008.72;;;13.37;79.93
34979;BME280;21185;50.978;13.720;2023-04-29T11:00:22;98009.84;;;13.27;80.31
34979;BME280;21185;50.978;13.720;2023-04-29T11:05:31;98015.41;;;13.24;80.18
34979;BME280;21185;50.978;13.720;2023-04-29T11:10:40;98026.16;;;13.36;80.14
34979;BME280;21185;50.978;13.720;2023-04-29T11:15:42;98029.50;;;13.51;80.00
34979;BME280;21185;50.978;13.720;2023-04-29T11:26:05;98029.69;;;13.71;79.74
34979;BME280;21185;50.978;13.720;2023-04-29T11:31:07;98030.16;;;13.81;79.32
34979;BME280;21185;50.978;13.720;2023-04-29T11:36:12;98025.00;;;13.88;78.74
34979;BME280;21185;50.978;13.720;2023-04-29T11:41:15;98038.06;;;13.88;78.50
34979;BME280;21185;50.978;13.720;2023-04-29T11:46:17;98038.06;;;13.88;78.22
34979;BME280;21185;50.978;13.720;2023-04-29T11:51:19;98055.44;;;13.81;77.56
34979;BME280;21185;50.978;13.720;2023-04-29T11:56:23;98051.16;;;13.73;77.59
34979;BME280;21185;50.978;13.720;2023-04-29T12:01:26;98063.72;;;13.63;77.45
34979;BME280;21185;50.978;13.720;2023-04-29T12:06:29;98061.66;;;13.58;77.29
34979;BME280;21185;50.978;13.720;2023-04-29T12:11:31;98063.59;;;13.71;77.22
34979;BME280;21185;50.978;13.720;2023-04-29T12:16:33;98065.06;;;13.80;77.22
34979;BME280;21185;50.978;13.720;2023-04-29T12:21:36;98075.88;;;13.77;76.83
34979;BME280;21185;50.978;13.720;2023-04-29T12:26:39;98085.38;;;13.64;76.45
34979;BME280;21185;50.978;13.720;2023-04-29T12:31:41;98084.88;;;13.53;76.60
34979;BME280;21185;50.978;13.720;2023-04-29T12:36:44;98099.41;;;13.63;76.44
34979;BME280;21185;50.978;13.720;2023-04-29T12:41:46;98101.28;;;13.69;76.10
34979;BME280;21185;50.978;13.720;2023-04-29T12:46:48;98110.88;;;13.68;76.19
34979;BME280;21185;50.978;13.720;2023-04-29T12:51:51;98118.66;;;13.61;76.09
34979;BME280;21185;50.978;13.720;2023-04-29T12:56:53;98126.28;;;13.63;76.32
34979;BME280;21185;50.978;13.720;2023-04-29T13:01:55;98127.81;;;13.57;75.88
34979;BME280;21185;50.978;13.720;2023-04-29T13:06:58;98140.72;;;13.44;75.92
34979;BME280;21185;50.978;13.720;2023-04-29T13:12:04;98136.59;;;13.35;75.67
34979;BME280;21185;50.978;13.720;2023-04-29T13:17:08;98134.50;;;13.45;75.45
34979;BME280;21185;50.978;13.720;2023-04-29T13:22:12;98139.47;;;13.40;75.45
34979;BME280;21185;50.978;13.720;2023-04-29T13:27:14;98157.03;;;13.17;75.17
34979;BME280;21185;50.978;13.720;2023-04-29T13:32:17;98155.38;;;13.01;75.39
34979;BME280;21185;50.978;13.720;2023-04-29T13:37:19;98156.19;;;12.87;75.55
34979;BME280;21185;50.978;13.720;2023-04-29T13:42:22;98162.66;;;12.76;75.47
34979;BME280;21185;50.978;13.720;2023-04-29T13:47:27;98169.91;;;12.66;75.74
34979;BME280;21185;50.978;13.720;2023-04-29T13:52:32;98182.03;;;12.59;75.90
34979;BME280;21185;50.978;13.720;2023-04-29T13:57:37;98175.72;;;12.53;75.99
34979;BME280;21185;50.978;13.720;2023-04-29T14:02:59;98186.66;;;12.49;76.05
34979;BME280;21185;50.978;13.720;2023-04-29T14:08:06;98191.41;;;12.45;76.11
34979;BME280;21185;50.978;13.720;2023-04-29T14:13:08;98194.25;;;12.36;76.04
34979;BME280;21185;50.978;13.720;2023-04-29T14:18:10;98198.53;;;12.28;76.27
34979;BME280;21185;50.978;13.720;2023-04-29T14:23:12;98210.75;;;12.28;76.33
34979;BME280;21185;50.978;13.720;2023-04-29T14:28:18;98208.59;;;12.31;76.28
34979;BME280;21185;50.978;13.720;2023-04-29T14:33:20;98209.94;;;12.27;76.24
34979;BME280;21185;50.978;13.720;2023-04-29T14:38:22;98222.59;;;12.30;76.33
34979;BME280;21185;50.978;13.720;2023-04-29T14:43:24;98227.63;;;12.32;76.21
34979;BME280;21185;50.978;13.720;2023-04-29T14:48:27;98231.50;;;12.36;75.99
34979;BME280;21185;50.978;13.720;2023-04-29T14:53:29;98233.94;;;12.38;75.91
34979;BME280;21185;50.978;13.720;2023-04-29T14:58:31;98238.78;;;12.41;75.93
34979;BME280;21185;50.978;13.720;2023-04-29T15:03:33;98242.03;;;12.43;75.90
34979;BME280;21185;50.978;13.720;2023-04-29T15:08:40;98245.78;;;12.40;75.79
34979;BME280;21185;50.978;13.720;2023-04-29T15:13:42;98249.19;;;12.41;75.89
34979;BME280;21185;50.978;13.720;2023-04-29T15:18:46;98250.81;;;12.42;75.76
34979;BME280;21185;50.978;13.720;2023-04-29T15:23:48;98245.25;;;12.45;75.81
34979;BME280;21185;50.978;13.720;2023-04-29T15:28:50;98255.31;;;12.48;75.68
34979;BME280;21185;50.978;13.720;2023-04-29T15:33:52;98252.53;;;12.49;75.77
34979;BME280;21185;50.978;13.720;2023-04-29T15:38:55;98257.22;;;12.54;75.68
34979;BME280;21185;50.978;13.720;2023-04-29T15:43:57;98261.09;;;12.58;75.70
34979;BME280;21185;50.978;13.720;2023-04-29T15:48:59;98267.22;;;12.65;75.56
34979;BME280;21185;50.978;13.720;2023-04-29T15:54:03;98273.06;;;12.67;75.47
34979;BME280;21185;50.978;13.720;2023-04-29T15:59:05;98274.22;;;12.64;75.56
34979;BME280;21185;50.978;13.720;2023-04-29T16:04:08;98276.47;;;12.68;75.44
34979;BME280;21185;50.978;13.720;2023-04-29T16:09:09;98282.94;;;12.72;75.47
34979;BME280;21185;50.978;13.720;2023-04-29T16:14:12;98286.19;;;12.74;75.48
34979;BME280;21185;50.978;13.720;2023-04-29T16:19:14;98290.59;;;12.73;75.42
34979;BME280;21185;50.978;13.720;2023-04-29T16:24:16;98297.75;;;12.71;75.41
34979;BME280;21185;50.978;13.720;2023-04-29T16:29:18;98291.91;;;12.69;75.46
34979;BME280;21185;50.978;13.720;2023-04-29T16:34:20;98295.50;;;12.68;75.44
34979;BME280;21185;50.978;13.720;2023-04-29T16:39:22;98304.94;;;12.69;75.51
34979;BME280;21185;50.978;13.720;2023-04-29T16:44:24;98309.34;;;12.69;75.51
34979;BME280;21185;50.978;13.720;2023-04-29T16:49:26;98308.34;;;12.70;75.38
34979;BME280;21185;50.978;13.720;2023-04-29T16:54:28;98314.72;;;12.67;75.49
34979;BME280;21185;50.978;13.720;2023-04-29T16:59:32;98322.53;;;12.67;75.47
34979;BME280;21185;50.978;13.720;2023-04-29T17:04:34;98335.38;;;12.69;75.49
34979;BME280;21185;50.978;13.720;2023-04-29T17:09:36;98334.22;;;12.71;75.48
34979;BME280;21185;50.978;13.720;2023-04-29T17:14:38;98343.00;;;12.70;75.41
34979;BME280;21185;50.978;13.720;2023-04-29T17:19:41;98345.59;;;12.70;75.54
34979;BME280;21185;50.978;13.720;2023-04-29T17:24:43;98345.78;;;12.69;75.50
34979;BME280;21185;50.978;13.720;2023-04-29T17:29:48;98360.13;;;12.64;75.45
34979;BME280;21185;50.978;13.720;2023-04-29T17:34:50;98366.16;;;12.65;75.45
34979;BME280;21185;50.978;13.720;2023-04-29T17:39:53;98365.50;;;12.63;75.50
34979;BME280;21185;50.978;13.720;2023-04-29T17:44:56;98373.66;;;12.60;75.57
34979;BME280;21185;50.978;13.720;2023-04-29T17:49:58;98385.41;;;12.56;75.49
34979;BME280;21185;50.978;13.720;2023-04-29T17:55:03;98389.78;;;12.55;75.53
34979;BME280;21185;50.978;13.720;2023-04-29T18:00:06;98402.97;;;12.54;75.39
34979;BME280;21185;50.978;13.720;2023-04-29T18:05:09;98401.53;;;12.51;75.48
34979;BME280;21185;50.978;13.720;2023-04-29T18:10:11;98405.28;;;12.49;75.48
34979;BME280;21185;50.978;13.720;2023-04-29T18:15:13;98417.66;;;12.47;75.61
34979;BME280;21185;50.978;13.720;2023-04-29T18:20:17;98420.25;;;12.47;75.64
34979;BME280;21185;50.978;13.720;2023-04-29T18:25:20;98417.84;;;12.45;75.59
34979;BME280;21185;50.978;13.720;2023-04-29T18:30:22;98417.84;;;12.45;75.57
34979;BME280;21185;50.978;13.720;2023-04-29T18:35:24;98421.59;;;12.43;75.48
34979;BME280;21185;50.978;13.720;2023-04-29T18:40:26;98429.56;;;12.41;75.67
34979;BME280;21185;50.978;13.720;2023-04-29T18:45:28;98433.31;;;12.39;75.60
34979;BME280;21185;50.978;13.720;2023-04-29T18:50:30;98439.50;;;12.38;75.74
34979;BME280;21185;50.978;13.720;2023-04-29T18:55:32;98448.13;;;12.38;75.73
34979;BME280;21185;50.978;13.720;2023-04-29T19:00:34;98457.88;;;12.36;75.69
34979;BME280;21185;50.978;13.720;2023-04-29T19:05:36;98473.66;;;12.35;75.82
34979;BME280;21185;50.978;13.720;2023-04-29T19:10:38;98482.44;;;12.33;75.77
34979;BME280;21185;50.978;13.720;2023-04-29T19:15:40;98480.00;;;12.32;75.88
34979;BME280;21185;50.978;13.720;2023-04-29T19:20:42;98491.22;;;12.32;75.87
34979;BME280;21185;50.978;13.720;2023-04-29T19:25:44;98482.63;;;12.32;75.84
34979;BME280;21185;50.978;13.720;2023-04-29T19:30:46;98495.78;;;12.30;75.94
34979;BME280;21185;50.978;13.720;2023-04-29T19:35:48;98496.78;;;12.29;75.86
34979;BME280;21185;50.978;13.720;2023-04-29T19:40:53;98503.94;;;12.27;75.90
34979;BME280;21185;50.978;13.720;2023-04-29T19:45:55;98507.50;;;12.26;75.92
34979;BME280;21185;50.978;13.720;2023-04-29T19:50:57;98499.88;;;12.25;75.81
34979;BME280;21185;50.978;13.720;2023-04-29T19:56:00;98505.06;;;12.25;75.83
34979;BME280;21185;50.978;13.720;2023-04-29T20:01:02;98511.91;;;12.26;75.78
34979;BME280;21185;50.978;13.720;2023-04-29T20:06:04;98505.88;;;12.25;75.77
34979;BME280;21185;50.978;13.720;2023-04-29T20:11:08;98513.69;;;12.25;75.79
34979;BME280;21185;50.978;13.720;2023-04-29T20:16:10;98518.25;;;12.23;75.63
34979;BME280;21185;50.978;13.720;2023-04-29T20:21:12;98514.19;;;12.21;75.68
34979;BME280;21185;50.978;13.720;2023-04-29T20:26:14;98514.19;;;12.21;75.75
34979;BME280;21185;50.978;13.720;2023-04-29T20:31:18;98511.44;;;12.22;75.59
34979;BME280;21185;50.978;13.720;2023-04-29T20:36:20;98520.84;;;12.23;75.65
34979;BME280;21185;50.978;13.720;2023-04-29T20:41:25;98521.84;;;12.22;75.55
34979;BME280;21185;50.978;13.720;2023-04-29T20:46:29;98523.47;;;12.23;75.55
34979;BME280;21185;50.978;13.720;2023-04-29T20:51:31;98523.63;;;12.22;75.52
34979;BME280;21185;50.978;13.720;2023-04-29T20:56:33;98517.59;;;12.21;75.44
34979;BME280;21185;50.978;13.720;2023-04-29T21:01:35;98526.22;;;12.22;75.42
34979;BME280;21185;50.978;13.720;2023-04-29T21:06:38;98524.59;;;12.21;75.40
34979;BME280;21185;50.978;13.720;2023-04-29T21:11:40;98527.53;;;12.18;75.35
34979;BME280;21185;50.978;13.720;2023-04-29T21:16:42;98529.97;;;12.19;75.26
34979;BME280;21185;50.978;13.720;2023-04-29T21:21:44;98535.19;;;12.19;75.17
34979;BME280;21185;50.978;13.720;2023-04-29T21:26:46;98531.75;;;12.19;75.17
34979;BME280;21185;50.978;13.720;2023-04-29T21:31:48;98536.31;;;12.17;75.13
34979;BME280;21185;50.978;13.720;2023-04-29T21:36:51;98529.66;;;12.14;75.14
34979;BME280;21185;50.978;13.720;2023-04-29T21:41:53;98535.19;;;12.11;75.14
34979;BME280;21185;50.978;13.720;2023-04-29T21:46:56;98538.75;;;12.10;75.14
34979;BME280;21185;50.978;13.720;2023-04-29T21:52:00;98542.34;;;12.09;75.09
34979;BME280;21185;50.978;13.720;2023-04-29T21:57:03;98550.31;;;12.08;74.99
34979;BME280;21185;50.978;13.720;2023-04-29T22:02:05;98541.06;;;12.05;74.88
34979;BME280;21185;50.978;13.720;2023-04-29T22:07:23;98547.06;;;12.06;74.93
34979;BME280;21185;50.978;13.720;2023-04-29T22:12:26;98553.41;;;12.03;74.90
34979;BME280;21185;50.978;13.720;2023-04-29T22:17:28;98560.56;;;12.01;74.91
34979;BME280;21185;50.978;13.720;2023-04-29T22:22:30;98556.50;;;11.98;74.88
34979;BME280;21185;50.978;13.720;2023-04-29T22:27:33;98555.69;;;11.98;74.76
34979;BME280;21185;50.978;13.720;2023-04-29T22:32:35;98561.06;;;11.96;74.85
34979;BME280;21185;50.978;13.720;2023-04-29T22:37:37;98564.63;;;11.95;74.77
34979;BME280;21185;50.978;13.720;2023-04-29T22:42:39;98568.03;;;11.96;74.77
34979;BME280;21185;50.978;13.720;2023-04-29T22:47:42;98569.84;;;11.95;74.70
34979;BME280;21185;50.978;13.720;2023-04-29T22:52:44;98565.59;;;11.94;74.74
34979;BME280;21185;50.978;13.720;2023-04-29T22:57:49;98568.53;;;11.91;74.65
34979;BME280;21185;50.978;13.720;2023-04-29T23:02:51;98562.69;;;11.89;74.65
34979;BME280;21185;50.978;13.720;2023-04-29T23:07:53;98573.09;;;11.89;74.75
34979;BME280;21185;50.978;13.720;2023-04-29T23:12:56;98574.06;;;11.88;74.58
34979;BME280;21185;50.978;13.720;2023-04-29T23:17:58;98574.22;;;11.87;74.68
34979;BME280;21185;50.978;13.720;2023-04-29T23:23:00;98566.59;;;11.85;74.62
34979;BME280;21185;50.978;13.720;2023-04-29T23:28:02;98570.97;;;11.85;74.61
34979;BME280;21185;50.978;13.720;2023-04-29T23:33:04;98580.41;;;11.86;74.58
34979;BME280;21185;50.978;13.720;2023-04-29T23:38:07;98574.53;;;11.84;74.74
34979;BME280;21185;50.978;13.720;2023-04-29T23:43:09;98572.75;;;11.84;74.44
34979;BME280;21185;50.978;13.720;2023-04-29T23:48:11;98569.50;;;11.82;74.49
34979;BME280;21185;50.978;13.720;2023-04-29T23:53:14;98572.09;;;11.82;74.56
34979;BME280;21185;50.978;13.720;2023-04-29T23:58:16;98577.31;;;11.82;74.49
